sensor_id;sensor_type;location;lat;lon;timestamp;pressure;altitude;pressure_sealevel;temperature;humidity
76766;BME280;65707;52.362;6.588;2023-11-22T00:01:05;102855.09;;;4.56;86.83
76766;BME280;65707;52.362;6.588;2023-11-22T00:03:32;102852.44;;;4.56;86.35
76766;BME280;65707;52.362;6.588;2023-11-22T00:05:59;102855.34;;;4.52;87.13
76766;BME280;65707;52.362;6.588;2023-11-22T00:08:26;102845.03;;;4.46;86.38
76766;BME280;65707;52.362;6.588;2023-11-22T00:10:54;102856.34;;;4.49;86.28
76766;BME280;65707;52.362;6.588;2023-11-22T00:13:21;102850.38;;;4.46;87.00
76766;BME280;65707;52.362;6.588;2023-11-22T00:15:48;102850.19;;;4.49;86.66
76766;BME280;65707;52.362;6.588;2023-11-22T00:18:16;102862.25;;;4.39;86.56
76766;BME280;65707;52.362;6.588;2023-11-22T00:20:43;102868.50;;;4.38;86.69
76766;BME280;65707;52.362;6.588;2023-11-22T00:23:13;102863.81;;;4.09;88.02
76766;BME280;65707;52.362;6.588;2023-11-22T00:25:39;102865.69;;;4.24;87.65
76766;BME280;65707;52.362;6.588;2023-11-22T00:28:06;102874.34;;;4.10;87.06
76766;BME280;65707;52.362;6.588;2023-11-22T00:30:33;102877.41;;;4.03;88.40
76766;BME280;65707;52.362;6.588;2023-11-22T00:33:00;102879.75;;;4.09;88.28
76766;BME280;65707;52.362;6.588;2023-11-22T00:35:28;102875.38;;;4.08;87.79
76766;BME280;65707;52.362;6.588;2023-11-22T00:37:55;102881.91;;;4.18;88.80
76766;BME280;65707;52.362;6.588;2023-11-22T00:40:23;102880.84;;;4.22;87.58
76766;BME280;65707;52.362;6.588;2023-11-22T00:42:50;102881.09;;;4.17;87.74
76766;BME280;65707;52.362;6.588;2023-11-22T00:45:16;102882.94;;;4.15;87.42
76766;BME280;65707;52.362;6.588;2023-11-22T00:47:45;102896.00;;;4.20;87.34
76766;BME280;65707;52.362;6.588;2023-11-22T00:50:12;102899.91;;;4.13;87.15
76766;BME280;65707;52.362;6.588;2023-11-22T00:52:40;102902.66;;;4.11;87.71
76766;BME280;65707;52.362;6.588;2023-11-22T00:55:10;102888.66;;;4.08;86.82
76766;BME280;65707;52.362;6.588;2023-11-22T00:57:37;102898.50;;;4.06;87.42
76766;BME280;65707;52.362;6.588;2023-11-22T01:00:05;102888.88;;;4.03;87.09
76766;BME280;65707;52.362;6.588;2023-11-22T01:02:34;102904.81;;;4.03;87.82
76766;BME280;65707;52.362;6.588;2023-11-22T01:05:04;102914.50;;;4.04;87.22
76766;BME280;65707;52.362;6.588;2023-11-22T01:07:32;102920.03;;;4.00;88.00
76766;BME280;65707;52.362;6.588;2023-11-22T01:10:00;102917.00;;;4.07;87.84
76766;BME280;65707;52.362;6.588;2023-11-22T01:12:27;102921.16;;;3.96;87.34
76766;BME280;65707;52.362;6.588;2023-11-22T01:14:54;102922.69;;;4.00;87.03
76766;BME280;65707;52.362;6.588;2023-11-22T01:17:23;102924.50;;;3.99;86.48
76766;BME280;65707;52.362;6.588;2023-11-22T01:19:50;102934.69;;;4.08;86.61
76766;BME280;65707;52.362;6.588;2023-11-22T01:22:17;102960.97;;;3.96;86.28
76766;BME280;65707;52.362;6.588;2023-11-22T01:24:45;102938.19;;;3.73;87.16
76766;BME280;65707;52.362;6.588;2023-11-22T01:27:13;102963.16;;;3.88;87.32
76766;BME280;65707;52.362;6.588;2023-11-22T01:29:39;102965.94;;;3.85;87.08
76766;BME280;65707;52.362;6.588;2023-11-22T01:32:06;102963.22;;;3.68;87.45
76766;BME280;65707;52.362;6.588;2023-11-22T01:34:33;102976.69;;;3.82;88.21
76766;BME280;65707;52.362;6.588;2023-11-22T01:37:00;102988.41;;;3.78;88.24
76766;BME280;65707;52.362;6.588;2023-11-22T01:39:27;102983.59;;;3.67;88.37
76766;BME280;65707;52.362;6.588;2023-11-22T01:41:54;102980.09;;;3.67;88.95
76766;BME280;65707;52.362;6.588;2023-11-22T01:44:22;102983.97;;;3.60;88.80
76766;BME280;65707;52.362;6.588;2023-11-22T01:46:49;102978.91;;;3.54;89.39
76766;BME280;65707;52.362;6.588;2023-11-22T01:49:17;102960.91;;;3.60;89.00
76766;BME280;65707;52.362;6.588;2023-11-22T01:51:44;102966.59;;;3.53;89.05
76766;BME280;65707;52.362;6.588;2023-11-22T01:54:11;102965.09;;;3.66;89.13
76766;BME280;65707;52.362;6.588;2023-11-22T01:56:38;102957.13;;;3.66;89.10
76766;BME280;65707;52.362;6.588;2023-11-22T01:59:05;102953.97;;;3.58;88.54
76766;BME280;65707;52.362;6.588;2023-11-22T02:01:34;102946.00;;;3.58;89.14
76766;BME280;65707;52.362;6.588;2023-11-22T02:04:02;102947.56;;;3.62;88.95
76766;BME280;65707;52.362;6.588;2023-11-22T02:06:29;102933.59;;;3.58;88.62
76766;BME280;65707;52.362;6.588;2023-11-22T02:08:56;102946.09;;;3.56;88.94
76766;BME280;65707;52.362;6.588;2023-11-22T02:11:23;102943.38;;;3.58;88.52
76766;BME280;65707;52.362;6.588;2023-11-22T02:13:50;102947.56;;;3.62;88.44
76766;BME280;65707;52.362;6.588;2023-11-22T02:16:17;102953.84;;;3.61;88.10
76766;BME280;65707;52.362;6.588;2023-11-22T02:18:46;102936.16;;;3.41;88.42
76766;BME280;65707;52.362;6.588;2023-11-22T02:21:16;102945.38;;;3.53;88.64
76766;BME280;65707;52.362;6.588;2023-11-22T02:23:44;102945.44;;;3.51;88.11
76766;BME280;65707;52.362;6.588;2023-11-22T02:26:11;102945.66;;;3.47;88.17
76766;BME280;65707;52.362;6.588;2023-11-22T02:28:38;102954.88;;;3.57;88.35
76766;BME280;65707;52.362;6.588;2023-11-22T02:31:05;102966.59;;;3.53;87.07
76766;BME280;65707;52.362;6.588;2023-11-22T02:33:32;102968.97;;;3.59;87.18
76766;BME280;65707;52.362;6.588;2023-11-22T02:35:58;102974.34;;;3.57;87.23
76766;BME280;65707;52.362;6.588;2023-11-22T02:38:27;102976.19;;;3.55;86.82
76766;BME280;65707;52.362;6.588;2023-11-22T02:40:55;102965.16;;;3.46;86.86
76766;BME280;65707;52.362;6.588;2023-11-22T02:43:23;102980.00;;;3.50;86.57
76766;BME280;65707;52.362;6.588;2023-11-22T02:45:50;102963.06;;;3.34;87.05
76766;BME280;65707;52.362;6.588;2023-11-22T02:48:17;102979.41;;;3.25;86.03
76766;BME280;65707;52.362;6.588;2023-11-22T02:50:44;102980.06;;;3.30;86.37
76766;BME280;65707;52.362;6.588;2023-11-22T02:53:11;102974.03;;;3.26;86.26
76766;BME280;65707;52.362;6.588;2023-11-22T02:55:37;102969.09;;;3.18;86.50
76766;BME280;65707;52.362;6.588;2023-11-22T02:58:06;102968.41;;;3.13;86.09
76766;BME280;65707;52.362;6.588;2023-11-22T03:00:33;102972.13;;;3.09;86.04
76766;BME280;65707;52.362;6.588;2023-11-22T03:03:00;102960.88;;;3.04;86.17
76766;BME280;65707;52.362;6.588;2023-11-22T03:05:28;102968.56;;;3.10;86.13
76766;BME280;65707;52.362;6.588;2023-11-22T03:07:55;102977.84;;;3.00;86.01
76766;BME280;65707;52.362;6.588;2023-11-22T03:10:23;102973.22;;;2.85;86.32
76766;BME280;65707;52.362;6.588;2023-11-22T03:12:51;102965.94;;;2.90;86.47
76766;BME280;65707;52.362;6.588;2023-11-22T03:15:20;102964.94;;;2.93;86.71
76766;BME280;65707;52.362;6.588;2023-11-22T03:17:47;102971.19;;;2.92;86.69
76766;BME280;65707;52.362;6.588;2023-11-22T03:20:14;102976.47;;;2.92;86.33
76766;BME280;65707;52.362;6.588;2023-11-22T03:22:41;102981.03;;;2.88;86.37
76766;BME280;65707;52.362;6.588;2023-11-22T03:25:10;102985.41;;;2.89;86.29
76766;BME280;65707;52.362;6.588;2023-11-22T03:27:39;102987.31;;;2.86;86.28
76766;BME280;65707;52.362;6.588;2023-11-22T03:30:06;102983.22;;;2.79;86.22
76766;BME280;65707;52.362;6.588;2023-11-22T03:32:38;102992.25;;;2.75;85.97
76766;BME280;65707;52.362;6.588;2023-11-22T03:35:05;103004.38;;;2.60;85.54
76766;BME280;65707;52.362;6.588;2023-11-22T03:37:32;103008.47;;;2.67;85.40
76766;BME280;65707;52.362;6.588;2023-11-22T03:39:59;103014.84;;;2.63;84.84
76766;BME280;65707;52.362;6.588;2023-11-22T03:42:26;103031.41;;;2.68;84.38
76766;BME280;65707;52.362;6.588;2023-11-22T03:44:54;103031.97;;;2.55;84.29
76766;BME280;65707;52.362;6.588;2023-11-22T03:47:21;103033.91;;;2.51;84.74
76766;BME280;65707;52.362;6.588;2023-11-22T03:49:49;103038.75;;;2.62;84.58
76766;BME280;65707;52.362;6.588;2023-11-22T03:52:16;103032.97;;;2.52;84.72
76766;BME280;65707;52.362;6.588;2023-11-22T03:54:42;103050.44;;;2.56;84.45
76766;BME280;65707;52.362;6.588;2023-11-22T03:57:09;103049.59;;;2.56;84.96
76766;BME280;65707;52.362;6.588;2023-11-22T03:59:36;103040.78;;;2.55;85.01
76766;BME280;65707;52.362;6.588;2023-11-22T04:02:03;103048.72;;;2.55;84.87
76766;BME280;65707;52.362;6.588;2023-11-22T04:04:30;103037.59;;;2.47;84.83
76766;BME280;65707;52.362;6.588;2023-11-22T04:06:58;103051.31;;;2.57;85.01
76766;BME280;65707;52.362;6.588;2023-11-22T04:09:24;103054.84;;;2.57;84.82
76766;BME280;65707;52.362;6.588;2023-11-22T04:11:51;103057.63;;;2.54;85.07
76766;BME280;65707;52.362;6.588;2023-11-22T04:14:18;103061.25;;;2.52;84.55
76766;BME280;65707;52.362;6.588;2023-11-22T04:16:45;103053.16;;;2.55;84.92
76766;BME280;65707;52.362;6.588;2023-11-22T04:19:12;103045.41;;;2.50;84.72
76766;BME280;65707;52.362;6.588;2023-11-22T04:21:39;103044.53;;;2.50;84.97
76766;BME280;65707;52.362;6.588;2023-11-22T04:24:07;103040.16;;;2.49;85.02
76766;BME280;65707;52.362;6.588;2023-11-22T04:26:34;103029.56;;;2.49;85.22
76766;BME280;65707;52.362;6.588;2023-11-22T04:29:01;103040.97;;;2.51;85.27
76766;BME280;65707;52.362;6.588;2023-11-22T04:31:29;103051.66;;;2.49;85.62
76766;BME280;65707;52.362;6.588;2023-11-22T04:33:56;103052.59;;;2.47;85.36
76766;BME280;65707;52.362;6.588;2023-11-22T04:36:23;103051.72;;;2.48;85.33
76766;BME280;65707;52.362;6.588;2023-11-22T04:38:49;103055.09;;;2.51;85.55
76766;BME280;65707;52.362;6.588;2023-11-22T04:41:17;103050.56;;;2.53;84.71
76766;BME280;65707;52.362;6.588;2023-11-22T04:43:44;103046.22;;;2.52;84.67
76766;BME280;65707;52.362;6.588;2023-11-22T04:46:11;103062.19;;;2.51;84.81
76766;BME280;65707;52.362;6.588;2023-11-22T04:48:38;103061.44;;;2.47;84.84
76766;BME280;65707;52.362;6.588;2023-11-22T04:51:05;103064.03;;;2.49;84.71
76766;BME280;65707;52.362;6.588;2023-11-22T04:53:32;103067.72;;;2.45;85.09
76766;BME280;65707;52.362;6.588;2023-11-22T04:55:59;103068.69;;;2.42;84.56
76766;BME280;65707;52.362;6.588;2023-11-22T04:58:28;103074.06;;;2.41;84.53
76766;BME280;65707;52.362;6.588;2023-11-22T05:00:56;103071.59;;;2.36;84.69
76766;BME280;65707;52.362;6.588;2023-11-22T05:03:24;103078.09;;;2.29;84.62
76766;BME280;65707;52.362;6.588;2023-11-22T05:05:50;103079.91;;;2.27;84.51
76766;BME280;65707;52.362;6.588;2023-11-22T05:08:17;103069.31;;;2.27;85.07
76766;BME280;65707;52.362;6.588;2023-11-22T05:10:44;103071.03;;;2.28;85.14
76766;BME280;65707;52.362;6.588;2023-11-22T05:13:10;103063.22;;;2.25;85.32
76766;BME280;65707;52.362;6.588;2023-11-22T05:15:39;103076.22;;;2.31;85.06
76766;BME280;65707;52.362;6.588;2023-11-22T05:18:05;103053.94;;;2.15;85.16
76766;BME280;65707;52.362;6.588;2023-11-22T05:20:32;103060.25;;;2.11;85.42
76766;BME280;65707;52.362;6.588;2023-11-22T05:22:59;103065.38;;;2.16;85.86
76766;BME280;65707;52.362;6.588;2023-11-22T05:25:27;103054.59;;;2.20;85.78
76766;BME280;65707;52.362;6.588;2023-11-22T05:27:57;103057.59;;;2.11;85.73
76766;BME280;65707;52.362;6.588;2023-11-22T05:30:24;103066.50;;;2.10;85.13
76766;BME280;65707;52.362;6.588;2023-11-22T05:32:52;103072.34;;;1.95;85.75
76766;BME280;65707;52.362;6.588;2023-11-22T05:35:19;103065.59;;;1.88;85.60
76766;BME280;65707;52.362;6.588;2023-11-22T05:37:46;103065.34;;;1.94;86.00
76766;BME280;65707;52.362;6.588;2023-11-22T05:40:12;103068.06;;;1.93;85.81
76766;BME280;65707;52.362;6.588;2023-11-22T05:42:41;103061.44;;;1.81;85.94
76766;BME280;65707;52.362;6.588;2023-11-22T05:45:08;103066.09;;;1.98;86.12
76766;BME280;65707;52.362;6.588;2023-11-22T05:47:35;103064.16;;;2.01;86.00
76766;BME280;65707;52.362;6.588;2023-11-22T05:50:04;103052.31;;;2.11;85.58
76766;BME280;65707;52.362;6.588;2023-11-22T05:52:32;103065.50;;;2.13;85.41
76766;BME280;65707;52.362;6.588;2023-11-22T05:54:59;103064.63;;;2.12;85.25
76766;BME280;65707;52.362;6.588;2023-11-22T05:57:28;103066.31;;;2.15;85.31
76766;BME280;65707;52.362;6.588;2023-11-22T05:59:55;103066.06;;;2.21;85.23
76766;BME280;65707;52.362;6.588;2023-11-22T06:02:22;103076.84;;;2.16;85.12
76766;BME280;65707;52.362;6.588;2023-11-22T06:04:49;103093.34;;;2.23;84.34
76766;BME280;65707;52.362;6.588;2023-11-22T06:07:17;103076.97;;;2.13;84.10
76766;BME280;65707;52.362;6.588;2023-11-22T06:09:44;103103.19;;;2.19;84.00
76766;BME280;65707;52.362;6.588;2023-11-22T06:12:10;103099.59;;;2.20;84.19
76766;BME280;65707;52.362;6.588;2023-11-22T06:14:37;103102.44;;;2.16;84.09
76766;BME280;65707;52.362;6.588;2023-11-22T06:17:04;103091.25;;;2.31;83.96
76766;BME280;65707;52.362;6.588;2023-11-22T06:19:31;103097.16;;;2.37;84.22
76766;BME280;65707;52.362;6.588;2023-11-22T06:21:59;103100.03;;;2.31;83.29
76766;BME280;65707;52.362;6.588;2023-11-22T06:24:28;103090.75;;;2.21;83.28
76766;BME280;65707;52.362;6.588;2023-11-22T06:26:55;103113.03;;;2.37;84.12
76766;BME280;65707;52.362;6.588;2023-11-22T06:29:21;103112.16;;;2.38;83.94
76766;BME280;65707;52.362;6.588;2023-11-22T06:31:48;103108.81;;;2.33;84.11
76766;BME280;65707;52.362;6.588;2023-11-22T06:34:14;103130.38;;;2.24;83.61
76766;BME280;65707;52.362;6.588;2023-11-22T06:36:42;103134.34;;;2.34;84.16
76766;BME280;65707;52.362;6.588;2023-11-22T06:39:08;103132.53;;;2.36;84.23
76766;BME280;65707;52.362;6.588;2023-11-22T06:41:40;103146.38;;;2.21;84.16
76766;BME280;65707;52.362;6.588;2023-11-22T06:44:07;103146.25;;;2.24;85.05
76766;BME280;65707;52.362;6.588;2023-11-22T06:46:34;103149.53;;;2.31;85.16
76766;BME280;65707;52.362;6.588;2023-11-22T06:49:02;103152.06;;;2.55;84.11
76766;BME280;65707;52.362;6.588;2023-11-22T06:51:30;103146.34;;;2.44;83.71
76766;BME280;65707;52.362;6.588;2023-11-22T06:53:57;103150.31;;;2.33;83.81
76766;BME280;65707;52.362;6.588;2023-11-22T06:56:23;103161.72;;;2.35;84.39
76766;BME280;65707;52.362;6.588;2023-11-22T06:58:51;103150.47;;;2.51;83.59
76766;BME280;65707;52.362;6.588;2023-11-22T07:01:22;103151.81;;;2.61;82.74
76766;BME280;65707;52.362;6.588;2023-11-22T07:03:50;103154.34;;;2.64;82.67
76766;BME280;65707;52.362;6.588;2023-11-22T07:06:18;103146.09;;;2.72;83.12
76766;BME280;65707;52.362;6.588;2023-11-22T07:08:44;103128.66;;;2.66;82.90
76766;BME280;65707;52.362;6.588;2023-11-22T07:11:11;103134.78;;;2.68;82.60
76766;BME280;65707;52.362;6.588;2023-11-22T07:13:39;103141.59;;;2.74;82.38
76766;BME280;65707;52.362;6.588;2023-11-22T07:16:07;103140.69;;;2.75;82.35
76766;BME280;65707;52.362;6.588;2023-11-22T07:18:34;103135.38;;;2.75;82.83
76766;BME280;65707;52.362;6.588;2023-11-22T07:21:00;103129.84;;;2.81;82.59
76766;BME280;65707;52.362;6.588;2023-11-22T07:23:30;103114.63;;;2.84;82.79
76766;BME280;65707;52.362;6.588;2023-11-22T07:25:56;103121.28;;;2.94;82.97
76766;BME280;65707;52.362;6.588;2023-11-22T07:28:25;103119.44;;;2.96;82.53
76766;BME280;65707;52.362;6.588;2023-11-22T07:30:52;103119.78;;;3.09;82.96
76766;BME280;65707;52.362;6.588;2023-11-22T07:33:20;103114.97;;;3.18;83.44
76766;BME280;65707;52.362;6.588;2023-11-22T07:35:46;103118.91;;;3.08;82.12
76766;BME280;65707;52.362;6.588;2023-11-22T07:38:16;103111.03;;;3.27;82.67
76766;BME280;65707;52.362;6.588;2023-11-22T07:40:43;103107.13;;;3.36;81.56
76766;BME280;65707;52.362;6.588;2023-11-22T07:43:10;103115.03;;;3.37;81.53
76766;BME280;65707;52.362;6.588;2023-11-22T07:45:36;103119.91;;;3.46;81.06
76766;BME280;65707;52.362;6.588;2023-11-22T07:48:03;103111.09;;;3.46;81.36
76766;BME280;65707;52.362;6.588;2023-11-22T07:50:32;103126.09;;;3.47;81.16
76766;BME280;65707;52.362;6.588;2023-11-22T07:52:59;103123.25;;;3.51;81.17
76766;BME280;65707;52.362;6.588;2023-11-22T07:55:28;103126.03;;;3.48;80.71
76766;BME280;65707;52.362;6.588;2023-11-22T07:57:55;103124.16;;;3.70;80.49
76766;BME280;65707;52.362;6.588;2023-11-22T08:00:22;103126.75;;;3.72;79.73
76766;BME280;65707;52.362;6.588;2023-11-22T08:02:49;103130.69;;;3.82;79.97
76766;BME280;65707;52.362;6.588;2023-11-22T08:05:16;103132.81;;;3.94;80.09
76766;BME280;65707;52.362;6.588;2023-11-22T08:07:50;103137.34;;;4.10;79.78
76766;BME280;65707;52.362;6.588;2023-11-22T08:10:18;103139.22;;;4.08;78.76
76766;BME280;65707;52.362;6.588;2023-11-22T08:12:46;103148.97;;;4.08;80.24
76766;BME280;65707;52.362;6.588;2023-11-22T08:15:15;103154.50;;;4.22;80.56
76766;BME280;65707;52.362;6.588;2023-11-22T08:17:46;103162.25;;;4.26;80.94
76766;BME280;65707;52.362;6.588;2023-11-22T08:20:14;103168.38;;;4.47;81.13
76766;BME280;65707;52.362;6.588;2023-11-22T08:22:46;103165.19;;;4.57;80.87
76766;BME280;65707;52.362;6.588;2023-11-22T08:25:16;103167.63;;;4.81;80.88
76766;BME280;65707;52.362;6.588;2023-11-22T08:27:43;103165.06;;;4.96;79.55
76766;BME280;65707;52.362;6.588;2023-11-22T08:30:10;103167.34;;;5.04;79.01
76766;BME280;65707;52.362;6.588;2023-11-22T08:32:44;103176.19;;;5.04;79.28
76766;BME280;65707;52.362;6.588;2023-11-22T08:35:16;103186.75;;;4.70;80.49
76766;BME280;65707;52.362;6.588;2023-11-22T08:37:43;103181.78;;;4.98;81.34
76766;BME280;65707;52.362;6.588;2023-11-22T08:40:12;103159.06;;;5.27;80.44
76766;BME280;65707;52.362;6.588;2023-11-22T08:42:41;103147.25;;;5.32;79.59
76766;BME280;65707;52.362;6.588;2023-11-22T08:45:09;103164.78;;;5.36;78.46
76766;BME280;65707;52.362;6.588;2023-11-22T08:47:37;103169.22;;;5.36;78.16
76766;BME280;65707;52.362;6.588;2023-11-22T08:50:06;103188.00;;;5.16;78.80
76766;BME280;65707;52.362;6.588;2023-11-22T08:52:33;103185.75;;;5.25;80.06
76766;BME280;65707;52.362;6.588;2023-11-22T08:55:02;103181.47;;;5.40;79.77
76766;BME280;65707;52.362;6.588;2023-11-22T08:57:29;103178.34;;;5.32;79.42
76766;BME280;65707;52.362;6.588;2023-11-22T08:59:58;103187.66;;;5.40;78.45
76766;BME280;65707;52.362;6.588;2023-11-22T09:02:26;103180.81;;;5.18;78.76
76766;BME280;65707;52.362;6.588;2023-11-22T09:04:55;103172.28;;;5.11;79.84
76766;BME280;65707;52.362;6.588;2023-11-22T09:07:22;103180.41;;;5.08;80.36
76766;BME280;65707;52.362;6.588;2023-11-22T09:09:49;103178.44;;;4.95;80.97
76766;BME280;65707;52.362;6.588;2023-11-22T09:12:17;103182.13;;;5.09;80.17
76766;BME280;65707;52.362;6.588;2023-11-22T09:14:45;103190.19;;;5.08;80.22
76766;BME280;65707;52.362;6.588;2023-11-22T09:17:13;103191.38;;;5.02;80.80
76766;BME280;65707;52.362;6.588;2023-11-22T09:19:40;103182.28;;;5.06;79.95
76766;BME280;65707;52.362;6.588;2023-11-22T09:22:09;103180.97;;;5.15;80.30
76766;BME280;65707;52.362;6.588;2023-11-22T09:24:36;103192.03;;;5.24;79.73
76766;BME280;65707;52.362;6.588;2023-11-22T09:27:03;103186.06;;;5.19;79.63
76766;BME280;65707;52.362;6.588;2023-11-22T09:29:31;103195.22;;;5.14;80.86
76766;BME280;65707;52.362;6.588;2023-11-22T09:32:03;103180.25;;;5.11;79.97
76766;BME280;65707;52.362;6.588;2023-11-22T09:34:32;103167.28;;;5.22;79.92
76766;BME280;65707;52.362;6.588;2023-11-22T09:37:00;103172.03;;;5.16;79.77
76766;BME280;65707;52.362;6.588;2023-11-22T09:39:27;103183.16;;;5.07;79.54
76766;BME280;65707;52.362;6.588;2023-11-22T09:41:55;103170.66;;;5.09;80.82
76766;BME280;65707;52.362;6.588;2023-11-22T09:44:21;103165.09;;;5.13;80.42
76766;BME280;65707;52.362;6.588;2023-11-22T09:46:48;103168.81;;;5.09;81.09
76766;BME280;65707;52.362;6.588;2023-11-22T09:49:20;103163.00;;;5.20;79.76
76766;BME280;65707;52.362;6.588;2023-11-22T09:51:54;103163.22;;;5.15;80.32
76766;BME280;65707;52.362;6.588;2023-11-22T09:54:25;103167.91;;;5.10;80.31
76766;BME280;65707;52.362;6.588;2023-11-22T09:56:58;103183.16;;;5.07;81.49
76766;BME280;65707;52.362;6.588;2023-11-22T09:59:28;103179.78;;;5.20;80.13
76766;BME280;65707;52.362;6.588;2023-11-22T10:01:58;103184.75;;;5.28;80.55
76766;BME280;65707;52.362;6.588;2023-11-22T10:04:25;103174.78;;;5.48;79.59
76766;BME280;65707;52.362;6.588;2023-11-22T10:06:57;103182.47;;;5.37;78.82
76766;BME280;65707;52.362;6.588;2023-11-22T10:09:25;103192.03;;;5.41;79.40
76766;BME280;65707;52.362;6.588;2023-11-22T10:11:57;103173.41;;;5.41;78.05
76766;BME280;65707;52.362;6.588;2023-11-22T10:14:24;103176.69;;;5.46;77.81
76766;BME280;65707;52.362;6.588;2023-11-22T10:16:58;103164.38;;;5.44;77.88
76766;BME280;65707;52.362;6.588;2023-11-22T10:19:26;103170.50;;;5.46;78.12
76766;BME280;65707;52.362;6.588;2023-11-22T10:22:04;103167.75;;;5.47;79.68
76766;BME280;65707;52.362;6.588;2023-11-22T10:24:32;103164.38;;;5.61;78.39
76766;BME280;65707;52.362;6.588;2023-11-22T10:27:02;103170.25;;;5.67;77.17
76766;BME280;65707;52.362;6.588;2023-11-22T10:29:39;103166.28;;;5.59;76.53
76766;BME280;65707;52.362;6.588;2023-11-22T10:32:06;103151.91;;;5.78;77.24
76766;BME280;65707;52.362;6.588;2023-11-22T10:34:33;103142.19;;;5.94;77.32
76766;BME280;65707;52.362;6.588;2023-11-22T10:37:03;103131.97;;;6.02;76.37
76766;BME280;65707;52.362;6.588;2023-11-22T10:39:30;103130.00;;;6.06;75.98
76766;BME280;65707;52.362;6.588;2023-11-22T10:41:59;103125.22;;;6.12;76.72
76766;BME280;65707;52.362;6.588;2023-11-22T10:44:26;103118.94;;;6.29;74.43
76766;BME280;65707;52.362;6.588;2023-11-22T10:46:53;103123.63;;;6.08;75.41
76766;BME280;65707;52.362;6.588;2023-11-22T10:49:21;103130.47;;;6.14;75.81
76766;BME280;65707;52.362;6.588;2023-11-22T10:51:51;103119.19;;;6.24;75.08
76766;BME280;65707;52.362;6.588;2023-11-22T10:54:21;103115.41;;;6.28;74.73
76766;BME280;65707;52.362;6.588;2023-11-22T10:56:54;103116.19;;;6.46;74.60
76766;BME280;65707;52.362;6.588;2023-11-22T10:59:25;103107.31;;;6.61;72.66
76766;BME280;65707;52.362;6.588;2023-11-22T11:01:56;103112.66;;;6.61;74.25
76766;BME280;65707;52.362;6.588;2023-11-22T11:04:33;103095.84;;;7.04;72.46
76766;BME280;65707;52.362;6.588;2023-11-22T11:07:09;103089.19;;;7.41;69.62
76766;BME280;65707;52.362;6.588;2023-11-22T11:09:42;103092.34;;;7.89;68.14
76766;BME280;65707;52.362;6.588;2023-11-22T11:12:12;103091.69;;;7.86;68.32
76766;BME280;65707;52.362;6.588;2023-11-22T11:14:39;103080.56;;;8.20;67.63
76766;BME280;65707;52.362;6.588;2023-11-22T11:17:06;103053.34;;;8.42;66.80
76766;BME280;65707;52.362;6.588;2023-11-22T11:19:34;103029.56;;;8.64;64.22
76766;BME280;65707;52.362;6.588;2023-11-22T11:22:02;103024.81;;;8.67;64.39
76766;BME280;65707;52.362;6.588;2023-11-22T11:24:29;102993.69;;;8.66;63.57
76766;BME280;65707;52.362;6.588;2023-11-22T11:27:06;102975.63;;;8.31;64.25
76766;BME280;65707;52.362;6.588;2023-11-22T11:29:34;102976.31;;;8.06;65.14
76766;BME280;65707;52.362;6.588;2023-11-22T11:32:09;102968.53;;;7.89;64.90
76766;BME280;65707;52.362;6.588;2023-11-22T11:34:46;102970.66;;;7.84;65.38
76766;BME280;65707;52.362;6.588;2023-11-22T11:37:14;102957.06;;;7.87;66.53
76766;BME280;65707;52.362;6.588;2023-11-22T11:39:41;102956.03;;;8.30;65.00
76766;BME280;65707;52.362;6.588;2023-11-22T11:42:10;102945.53;;;8.79;64.83
76766;BME280;65707;52.362;6.588;2023-11-22T11:44:51;102911.59;;;9.17;61.91
76766;BME280;65707;52.362;6.588;2023-11-22T11:47:30;102901.44;;;9.58;60.81
76766;BME280;65707;52.362;6.588;2023-11-22T11:49:57;102896.88;;;9.95;59.92
76766;BME280;65707;52.362;6.588;2023-11-22T11:52:24;102897.34;;;10.36;58.26
76766;BME280;65707;52.362;6.588;2023-11-22T11:54:51;102907.28;;;10.23;58.85
76766;BME280;65707;52.362;6.588;2023-11-22T11:57:19;102905.34;;;10.59;57.67
76766;BME280;65707;52.362;6.588;2023-11-22T11:59:46;102903.00;;;10.55;58.26
76766;BME280;65707;52.362;6.588;2023-11-22T12:02:14;102891.38;;;11.00;56.14
76766;BME280;65707;52.362;6.588;2023-11-22T12:04:42;102887.28;;;10.61;57.79
76766;BME280;65707;52.362;6.588;2023-11-22T12:07:11;102882.31;;;10.79;56.29
76766;BME280;65707;52.362;6.588;2023-11-22T12:09:38;102865.97;;;10.71;55.60
76766;BME280;65707;52.362;6.588;2023-11-22T12:12:05;102867.81;;;11.04;55.11
76766;BME280;65707;52.362;6.588;2023-11-22T12:14:33;102881.13;;;11.16;54.45
76766;BME280;65707;52.362;6.588;2023-11-22T12:17:00;102887.44;;;10.71;55.60
76766;BME280;65707;52.362;6.588;2023-11-22T12:19:28;102890.47;;;10.66;54.85
76766;BME280;65707;52.362;6.588;2023-11-22T12:21:58;102891.84;;;10.83;54.84
76766;BME280;65707;52.362;6.588;2023-11-22T12:24:25;102872.19;;;10.37;53.61
76766;BME280;65707;52.362;6.588;2023-11-22T12:26:52;102879.88;;;10.07;53.81
76766;BME280;65707;52.362;6.588;2023-11-22T12:29:20;102897.06;;;10.04;55.84
76766;BME280;65707;52.362;6.588;2023-11-22T12:31:50;102881.19;;;10.25;55.18
76766;BME280;65707;52.362;6.588;2023-11-22T12:34:20;102885.69;;;10.01;55.40
76766;BME280;65707;52.362;6.588;2023-11-22T12:36:48;102886.06;;;10.20;54.10
76766;BME280;65707;52.362;6.588;2023-11-22T12:39:15;102870.59;;;10.23;54.47
76766;BME280;65707;52.362;6.588;2023-11-22T12:41:47;102866.94;;;10.81;52.94
76766;BME280;65707;52.362;6.588;2023-11-22T12:44:17;102859.00;;;11.24;52.13
76766;BME280;65707;52.362;6.588;2023-11-22T12:46:50;102837.72;;;11.43;50.47
76766;BME280;65707;52.362;6.588;2023-11-22T12:49:22;102838.50;;;11.12;51.48
76766;BME280;65707;52.362;6.588;2023-11-22T12:51:58;102838.97;;;11.28;50.65
76766;BME280;65707;52.362;6.588;2023-11-22T12:54:25;102829.19;;;11.16;48.69
76766;BME280;65707;52.362;6.588;2023-11-22T12:56:53;102833.47;;;10.52;50.51
76766;BME280;65707;52.362;6.588;2023-11-22T12:59:23;102851.81;;;10.00;51.96
76766;BME280;65707;52.362;6.588;2023-11-22T13:01:54;102867.84;;;9.89;54.37
76766;BME280;65707;52.362;6.588;2023-11-22T13:04:22;102851.50;;;9.44;53.80